createdAt,value
2022-11-27T00:03:40.306Z,997.1
2022-11-27T00:05:42.185Z,997.1
2022-11-27T00:07:43.476Z,997.1
2022-11-27T00:09:44.630Z,997.1
2022-11-27T00:11:46.732Z,997.1
2022-11-27T00:13:48.560Z,997.1
2022-11-27T00:15:49.903Z,997.1
2022-11-27T00:17:51.109Z,997
2022-11-27T00:19:52.731Z,997
2022-11-27T00:21:54.414Z,997
2022-11-27T00:23:55.638Z,996.9
2022-11-27T00:25:56.696Z,996.9
2022-11-27T00:27:57.863Z,996.9
2022-11-27T00:29:59.144Z,997
2022-11-27T00:32:01.193Z,996.9
2022-11-27T00:34:02.798Z,997
2022-11-27T00:36:04.056Z,996.9
2022-11-27T00:38:05.549Z,996.9
2022-11-27T00:40:07.049Z,996.8
2022-11-27T00:42:08.265Z,996.8
2022-11-27T00:44:09.432Z,996.8
2022-11-27T00:46:10.737Z,996.7
2022-11-27T00:48:12.570Z,996.9
2022-11-27T00:52:15.414Z,996.9
2022-11-27T00:54:17.295Z,996.9
2022-11-27T00:56:18.785Z,996.8
2022-11-27T00:58:20.508Z,996.8
2022-11-27T01:00:22.337Z,996.7
2022-11-27T01:02:23.764Z,996.8
2022-11-27T01:04:25.689Z,996.8
2022-11-27T01:06:27.376Z,996.8
2022-11-27T01:08:29.432Z,996.7
2022-11-27T01:10:30.818Z,996.7
2022-11-27T01:12:32.743Z,996.6
2022-11-27T01:14:34.641Z,996.7
2022-11-27T01:16:37.700Z,996.6
2022-11-27T01:18:37.291Z,996.6
2022-11-27T01:20:38.960Z,996.6
2022-11-27T01:22:40.334Z,996.6
2022-11-27T01:24:42.085Z,996.6
2022-11-27T01:26:42.944Z,996.5
2022-11-27T01:28:44.634Z,996.5
2022-11-27T01:30:45.852Z,996.4
2022-11-27T01:32:47.211Z,996.4
2022-11-27T01:34:48.519Z,996.4
2022-11-27T01:36:49.594Z,996.4
2022-11-27T01:38:50.987Z,996.4
2022-11-27T01:40:52.988Z,996.4
2022-11-27T01:42:54.538Z,996.3
2022-11-27T01:44:56.172Z,996.2
2022-11-27T01:46:58.076Z,996.3
2022-11-27T01:51:01.368Z,996.1
2022-11-27T01:53:03.162Z,996.1
2022-11-27T01:55:04.477Z,996.2
2022-11-27T01:57:05.841Z,996.2
2022-11-27T01:59:07.081Z,996.2
2022-11-27T02:01:08.664Z,996.2
2022-11-27T02:03:10.612Z,996.3
2022-11-27T02:05:12.041Z,996.1
2022-11-27T02:07:13.398Z,996.1
2022-11-27T02:09:15.212Z,996.1
2022-11-27T02:11:16.971Z,996.2
2022-11-27T02:13:18.505Z,996.1
2022-11-27T02:15:20.300Z,996
2022-11-27T02:17:21.882Z,996
2022-11-27T02:19:23.255Z,996
2022-11-27T02:21:24.438Z,996
2022-11-27T02:23:25.937Z,996
2022-11-27T02:25:28.395Z,995.9
2022-11-27T02:27:28.569Z,995.9
2022-11-27T02:29:30.099Z,995.9
2022-11-27T02:31:31.846Z,995.8
2022-11-27T02:33:33.742Z,995.9
2022-11-27T02:35:35.442Z,995.9
2022-11-27T02:37:37.145Z,995.8
2022-11-27T02:39:38.668Z,995.8
2022-11-27T02:41:40.580Z,995.8
2022-11-27T02:43:42.416Z,995.8
2022-11-27T02:45:44.418Z,995.8
2022-11-27T02:47:45.492Z,995.8
2022-11-27T02:49:47.450Z,995.8
2022-11-27T02:51:48.566Z,995.8
2022-11-27T02:53:50.486Z,995.8
2022-11-27T02:55:51.779Z,995.7
2022-11-27T02:57:53.086Z,995.8
2022-11-27T02:59:54.356Z,995.8
2022-11-27T03:01:56.194Z,995.8
2022-11-27T03:03:57.764Z,995.8
2022-11-27T03:05:59.781Z,995.8
2022-11-27T03:08:01.230Z,995.9
2022-11-27T03:10:02.967Z,995.8
2022-11-27T03:12:04.113Z,995.8
2022-11-27T03:14:05.776Z,995.7
2022-11-27T03:16:07.367Z,995.7
2022-11-27T03:18:08.969Z,995.8
2022-11-27T03:20:10.448Z,995.6
2022-11-27T03:22:12.454Z,995.6
2022-11-27T03:24:13.847Z,995.7
2022-11-27T03:26:15.079Z,995.7
2022-11-27T03:26:59.021Z,995.6
2022-11-27T03:29:00.791Z,995.7
2022-11-27T03:31:02.523Z,995.7
2022-11-27T03:33:04.271Z,995.8
2022-11-27T03:37:07.688Z,995.8
2022-11-27T03:39:08.833Z,995.9
2022-11-27T03:41:10.650Z,995.9
2022-11-27T03:43:12.351Z,995.8
2022-11-27T03:45:13.936Z,995.9
2022-11-27T03:47:15.456Z,995.8
2022-11-27T03:49:17.336Z,995.7
2022-11-27T03:51:19.222Z,995.7
2022-11-27T03:53:20.973Z,995.7
2022-11-27T03:55:22.690Z,995.7
2022-11-27T03:57:24.649Z,995.7
2022-11-27T03:59:33.706Z,995.8
2022-11-27T04:03:29.338Z,995.7
2022-11-27T04:05:30.551Z,995.8
2022-11-27T04:07:41.069Z,995.8
2022-11-27T04:09:33.697Z,995.8
2022-11-27T04:11:35.271Z,995.7
2022-11-27T04:13:36.465Z,995.8
2022-11-27T04:15:37.639Z,995.7
2022-11-27T04:17:38.790Z,995.7
2022-11-27T04:19:39.995Z,995.7
2022-11-27T04:21:41.525Z,995.7
2022-11-27T04:23:43.055Z,995.8
2022-11-27T04:25:44.225Z,995.7
2022-11-27T04:27:45.427Z,995.8
2022-11-27T04:29:47.482Z,995.8
2022-11-27T04:31:48.632Z,995.7
2022-11-27T04:35:52.633Z,995.8
2022-11-27T04:37:53.956Z,995.8
2022-11-27T04:39:55.397Z,995.7
2022-11-27T04:41:56.803Z,995.7
2022-11-27T04:43:58.689Z,995.6
2022-11-27T04:45:59.820Z,995.7
2022-11-27T04:48:00.961Z,995.8
2022-11-27T04:50:02.744Z,995.8
2022-11-27T04:52:04.529Z,995.7
2022-11-27T04:54:06.566Z,995.7
2022-11-27T04:56:07.867Z,995.8
2022-11-27T04:58:09.444Z,995.7
2022-11-27T05:00:10.923Z,995.6
2022-11-27T05:02:12.399Z,995.7
2022-11-27T05:04:13.583Z,995.7
2022-11-27T05:06:15.234Z,995.7
2022-11-27T05:08:17.228Z,995.7
2022-11-27T05:10:18.626Z,995.5
2022-11-27T05:12:20.247Z,995.6
2022-11-27T05:14:21.463Z,995.5
2022-11-27T05:18:24.547Z,995.4
2022-11-27T05:20:26.271Z,995.5
2022-11-27T05:22:27.946Z,995.4
2022-11-27T05:24:29.851Z,995.4
2022-11-27T05:26:31.743Z,995.4
2022-11-27T05:28:33.089Z,995.4
2022-11-27T05:30:34.431Z,995.3
2022-11-27T05:32:35.672Z,995.3
2022-11-27T05:34:36.973Z,995.3
2022-11-27T05:36:38.360Z,995.4
2022-11-27T05:38:39.714Z,995.3
2022-11-27T05:40:41.524Z,995.4
2022-11-27T05:42:42.978Z,995.2
2022-11-27T05:44:44.464Z,995.3
2022-11-27T05:46:45.746Z,995.2
2022-11-27T05:48:47.518Z,995.2
2022-11-27T05:50:49.103Z,995.3
2022-11-27T05:52:50.458Z,995.2
2022-11-27T05:54:51.890Z,995.2
2022-11-27T05:56:53.932Z,995.3
2022-11-27T05:58:55.412Z,995.3
2022-11-27T06:00:57.224Z,995.2
2022-11-27T06:02:58.829Z,995.3
2022-11-27T06:05:00.577Z,995.2
2022-11-27T06:07:02.312Z,995
2022-11-27T06:09:06.799Z,995
2022-11-27T06:11:05.112Z,995
2022-11-27T06:13:06.687Z,995
2022-11-27T06:17:09.301Z,995
2022-11-27T06:19:11.291Z,995
2022-11-27T06:21:12.803Z,995
2022-11-27T06:23:14.631Z,995.1
2022-11-27T06:25:16.661Z,995.1
2022-11-27T06:27:17.758Z,995
2022-11-27T06:29:19.168Z,995
2022-11-27T06:31:20.737Z,995
2022-11-27T06:33:21.966Z,995.1
2022-11-27T06:35:23.722Z,995
2022-11-27T06:37:25.328Z,995
2022-11-27T06:39:27.393Z,995.1
2022-11-27T06:41:28.800Z,995.2
2022-11-27T06:43:30.868Z,995.2
2022-11-27T06:45:33.008Z,995.2
2022-11-27T06:47:34.294Z,995.2
2022-11-27T06:49:36.262Z,995.2
2022-11-27T06:51:37.607Z,995.2
2022-11-27T06:53:38.748Z,995.2
2022-11-27T06:55:40.237Z,995.1
2022-11-27T06:57:41.434Z,995.1
2022-11-27T06:59:42.859Z,995
2022-11-27T07:01:44.579Z,995.1
2022-11-27T07:03:46.516Z,995
2022-11-27T07:05:47.988Z,995
2022-11-27T07:07:49.174Z,995
2022-11-27T07:09:50.988Z,995.1
2022-11-27T07:11:52.942Z,995
2022-11-27T07:13:54.652Z,994.9
2022-11-27T07:15:56.077Z,995
2022-11-27T07:17:57.731Z,994.8
2022-11-27T07:19:58.824Z,994.9
2022-11-27T07:22:00.282Z,994.9
2022-11-27T07:26:03.773Z,994.8
2022-11-27T07:28:05.135Z,994.7
2022-11-27T07:30:06.234Z,994.7
2022-11-27T07:32:07.587Z,994.8
2022-11-27T07:36:10.023Z,994.8
2022-11-27T07:38:11.364Z,994.8
2022-11-27T07:40:14.813Z,994.9
2022-11-27T07:42:37.308Z,994.9
2022-11-27T07:44:15.178Z,995
2022-11-27T07:46:16.831Z,994.9
2022-11-27T07:48:18.392Z,994.8
2022-11-27T07:50:19.558Z,994.8
2022-11-27T07:52:20.834Z,994.8
2022-11-27T07:54:22.563Z,994.8
2022-11-27T07:56:23.717Z,994.7
2022-11-27T07:58:25.577Z,994.7
2022-11-27T08:00:26.742Z,994.6
2022-11-27T08:02:28.141Z,994.6
2022-11-27T08:04:29.537Z,994.5
2022-11-27T08:06:30.548Z,994.5
2022-11-27T08:08:32.525Z,994.4
2022-11-27T08:10:33.993Z,994.4
2022-11-27T08:12:35.461Z,994.3
2022-11-27T08:14:37.303Z,994.4
2022-11-27T08:16:39.145Z,994.4
2022-11-27T08:18:41.098Z,994.3
2022-11-27T08:20:42.269Z,994.3
2022-11-27T08:24:45.658Z,994.3
2022-11-27T08:26:47.674Z,994.3
2022-11-27T08:28:49.424Z,994.3
2022-11-27T08:30:50.978Z,994.2
2022-11-27T08:32:52.788Z,994.2
2022-11-27T08:34:54.708Z,994.2
2022-11-27T08:36:55.993Z,994.3
2022-11-27T08:38:57.230Z,994.2
2022-11-27T08:40:58.365Z,994.2
2022-11-27T08:43:00.116Z,994.2
2022-11-27T08:45:01.680Z,994.2
2022-11-27T08:47:03.140Z,994.1
2022-11-27T08:49:04.801Z,994.1
2022-11-27T08:51:06.164Z,994.1
2022-11-27T08:53:07.502Z,994
2022-11-27T08:55:09.907Z,993.9
2022-11-27T08:57:11.666Z,993.9
2022-11-27T08:59:13.645Z,994
2022-11-27T09:01:15.090Z,994
2022-11-27T09:03:17.022Z,994.1
2022-11-27T09:07:20.033Z,994
2022-11-27T09:09:21.206Z,994.1
2022-11-27T09:11:23.048Z,994.2
2022-11-27T09:13:24.401Z,994.2
2022-11-27T09:15:26.374Z,994.2
2022-11-27T09:17:27.904Z,994.2
2022-11-27T09:19:29.221Z,994.1
2022-11-27T09:21:31.014Z,994.1
2022-11-27T09:23:32.559Z,993.9
2022-11-27T09:25:34.169Z,994
2022-11-27T09:27:35.684Z,994
2022-11-27T09:29:37.007Z,993.9
2022-11-27T09:31:38.173Z,994
2022-11-27T09:33:39.300Z,994
2022-11-27T09:35:40.401Z,994
2022-11-27T09:37:41.728Z,994
2022-11-27T09:39:43.112Z,993.9
2022-11-27T09:41:44.713Z,994
2022-11-27T09:43:45.889Z,993.9
2022-11-27T09:45:47.226Z,993.7
2022-11-27T09:47:48.472Z,993.7
2022-11-27T09:49:49.865Z,993.6
2022-11-27T09:51:51.587Z,993.6
2022-11-27T09:53:53.176Z,993.6
2022-11-27T09:55:54.801Z,993.5
2022-11-27T09:57:56.162Z,993.6
2022-11-27T09:59:57.540Z,993.5
2022-11-27T10:01:58.983Z,993.6
2022-11-27T10:04:00.282Z,993.5
2022-11-27T10:06:02.678Z,993.5
2022-11-27T10:08:06.839Z,993.5
2022-11-27T10:10:06.680Z,993.5
2022-11-27T10:12:07.627Z,993.5
2022-11-27T10:12:51.444Z,993.4
2022-11-27T10:14:53.378Z,993.3
2022-11-27T10:16:54.381Z,993.4
2022-11-27T10:18:55.374Z,993.3
2022-11-27T10:20:57.022Z,993.3
2022-11-27T10:22:58.029Z,993.2
2022-11-27T10:27:00.101Z,993.1
2022-11-27T10:29:01.703Z,993
2022-11-27T10:31:02.838Z,992.9
2022-11-27T10:33:04.585Z,993
2022-11-27T10:37:07.799Z,993
2022-11-27T10:39:09.107Z,992.9
2022-11-27T10:41:15.050Z,992.9
2022-11-27T10:43:13.312Z,992.9
2022-11-27T10:45:14.622Z,992.8
2022-11-27T10:47:15.623Z,992.8
2022-11-27T10:49:17.455Z,992.8
2022-11-27T10:51:19.088Z,992.7
2022-11-27T10:53:20.711Z,992.6
2022-11-27T10:55:21.799Z,992.5
2022-11-27T10:57:23.144Z,992.5
2022-11-27T10:59:24.105Z,992.4
2022-11-27T11:01:25.842Z,992.5
2022-11-27T11:03:27.627Z,992.5
2022-11-27T11:05:41.236Z,992.4
2022-11-27T11:07:30.773Z,992.3
2022-11-27T11:09:32.274Z,992.3
2022-11-27T11:11:33.250Z,992.3
2022-11-27T11:13:34.713Z,992.3
2022-11-27T11:15:36.227Z,992.3
2022-11-27T11:17:37.253Z,992.2
2022-11-27T11:19:38.160Z,992.2
2022-11-27T11:21:39.341Z,992.2
2022-11-27T11:25:42.279Z,992.1
2022-11-27T11:27:43.855Z,992.2
2022-11-27T11:29:45.475Z,992.1
2022-11-27T11:31:46.858Z,991.9
2022-11-27T11:33:47.860Z,992
2022-11-27T11:35:49.817Z,992
2022-11-27T11:37:51.317Z,991.9
2022-11-27T11:39:53.989Z,991.9
2022-11-27T11:41:55.052Z,991.9
2022-11-27T11:43:56.740Z,991.8
2022-11-27T11:45:58.177Z,991.8
2022-11-27T11:47:59.356Z,991.7
2022-11-27T11:50:00.387Z,991.7
2022-11-27T11:52:01.879Z,991.7
2022-11-27T11:54:03.751Z,991.5
2022-11-27T11:56:04.810Z,991.6
2022-11-27T11:58:06.308Z,991.7
2022-11-27T12:00:07.606Z,991.4
2022-11-27T12:02:09.015Z,991.5
2022-11-27T12:04:10.202Z,991.4
2022-11-27T12:06:11.670Z,991.4
2022-11-27T12:08:13.520Z,991.5
2022-11-27T12:10:14.540Z,991.4
2022-11-27T12:12:15.574Z,991.4
2022-11-27T12:14:17.036Z,991.4
2022-11-27T12:16:18.356Z,991.3
2022-11-27T12:18:19.468Z,991.3
2022-11-27T12:20:20.339Z,991.4
2022-11-27T12:22:21.899Z,991.4
2022-11-27T12:24:23.191Z,991.4
2022-11-27T12:26:24.123Z,991.3
2022-11-27T12:28:26.040Z,991.3
2022-11-27T12:30:27.269Z,991.2
2022-11-27T12:32:28.245Z,991.3
2022-11-27T12:34:30.428Z,991.2
2022-11-27T12:36:31.731Z,991.2
2022-11-27T12:38:33.414Z,991.1
2022-11-27T12:40:34.674Z,991.2
2022-11-27T12:42:35.943Z,991.1
2022-11-27T12:44:37.026Z,991.1
2022-11-27T12:46:38.437Z,991.1
2022-11-27T12:50:41.109Z,991
2022-11-27T12:52:42.338Z,991
2022-11-27T13:00:47.648Z,990.7
2022-11-27T13:02:48.690Z,990.8
2022-11-27T13:04:49.848Z,990.8
2022-11-27T13:14:58.430Z,990.6
2022-11-27T13:16:59.884Z,990.6
2022-11-27T13:19:01.358Z,990.7
2022-11-27T13:23:03.964Z,990.4
2022-11-27T13:25:05.613Z,990.5
2022-11-27T13:27:06.687Z,990.5
2022-11-27T13:29:08.482Z,990.5
2022-11-27T13:31:10.169Z,990.4
2022-11-27T13:33:11.282Z,990.4
2022-11-27T13:35:12.198Z,990.3
2022-11-27T13:37:13.762Z,990.4
2022-11-27T13:39:14.954Z,990.3
2022-11-27T13:41:16.846Z,990.4
2022-11-27T13:43:18.261Z,990.4
2022-11-27T13:45:19.584Z,990.3
2022-11-27T13:47:20.708Z,990.2
2022-11-27T13:49:22.633Z,990.2
2022-11-27T13:51:23.970Z,990.3
2022-11-27T13:53:25.463Z,990.3
2022-11-27T13:55:26.628Z,990.2
2022-11-27T13:57:28.619Z,990.3
2022-11-27T13:59:34.002Z,990.2
2022-11-27T14:01:33.012Z,990.2
2022-11-27T14:05:35.680Z,990.2
2022-11-27T14:07:37.490Z,990
2022-11-27T14:09:38.819Z,990
2022-11-27T14:11:40.001Z,990
2022-11-27T14:15:43.149Z,990
2022-11-27T14:17:44.727Z,989.9
2022-11-27T14:19:45.650Z,989.9
2022-11-27T14:21:46.934Z,989.9
2022-11-27T14:23:48.506Z,989.9
2022-11-27T14:25:50.419Z,989.9
2022-11-27T14:27:52.127Z,989.9
2022-11-27T14:29:53.348Z,989.9
2022-11-27T14:31:54.988Z,989.9
2022-11-27T14:34:14.716Z,989.9
2022-11-27T14:35:57.572Z,989.8
2022-11-27T14:37:59.015Z,989.8
2022-11-27T14:40:00.396Z,989.9
2022-11-27T14:42:02.157Z,989.9
2022-11-27T14:44:04.009Z,989.8
2022-11-27T14:46:05.214Z,989.8
2022-11-27T14:48:06.218Z,989.8
2022-11-27T14:50:08.006Z,989.8
2022-11-27T14:52:09.596Z,989.8
2022-11-27T14:54:11.142Z,989.8
2022-11-27T14:58:14.804Z,989.6
2022-11-27T15:00:16.717Z,989.7
2022-11-27T15:04:18.859Z,989.5
2022-11-27T15:06:20.230Z,989.5
2022-11-27T15:08:21.553Z,989.4
2022-11-27T15:10:23.252Z,989.4
2022-11-27T15:12:24.863Z,989.4
2022-11-27T15:14:26.536Z,989.2
2022-11-27T15:16:27.752Z,989.2
2022-11-27T15:18:28.978Z,989.2
2022-11-27T15:20:30.922Z,989.1
2022-11-27T15:22:32.300Z,989.2
2022-11-27T15:24:33.996Z,989
2022-11-27T15:26:35.344Z,989
2022-11-27T15:28:36.875Z,988.9
2022-11-27T15:30:38.439Z,989
2022-11-27T15:32:39.664Z,988.8
2022-11-27T15:34:40.918Z,988.9
2022-11-27T15:36:41.831Z,988.7
2022-11-27T15:38:42.844Z,988.6
2022-11-27T15:40:44.088Z,988.7
2022-11-27T15:42:45.813Z,988.7
2022-11-27T15:44:47.279Z,988.7
2022-11-27T15:46:48.637Z,988.7
2022-11-27T15:48:49.919Z,988.6
2022-11-27T15:50:51.788Z,988.7
2022-11-27T15:52:53.125Z,988.6
2022-11-27T15:54:54.649Z,988.5
2022-11-27T15:56:55.816Z,988.6
2022-11-27T15:58:57.346Z,988.6
2022-11-27T16:03:00.882Z,988.4
2022-11-27T16:05:02.725Z,988.5
2022-11-27T16:07:03.928Z,988.5
2022-11-27T16:09:05.182Z,988.5
2022-11-27T16:11:06.357Z,988.6
2022-11-27T16:13:07.717Z,988.7
2022-11-27T16:15:09.187Z,988.6
2022-11-27T16:17:10.939Z,988.7
2022-11-27T16:19:12.546Z,988.6
2022-11-27T16:21:13.775Z,988.7
2022-11-27T16:23:15.376Z,988.7
2022-11-27T16:25:16.431Z,988.9
2022-11-27T16:27:17.777Z,988.7
2022-11-27T16:29:18.988Z,988.9
2022-11-27T16:31:20.873Z,989
2022-11-27T16:33:22.445Z,988.9
2022-11-27T16:35:24.049Z,988.9
2022-11-27T16:37:25.064Z,989
2022-11-27T16:39:26.592Z,988.9
2022-11-27T16:41:28.504Z,988.9
2022-11-27T16:43:30.485Z,989
2022-11-27T16:45:31.549Z,988.9
2022-11-27T16:47:33.936Z,988.8
2022-11-27T16:49:34.156Z,988.8
2022-11-27T16:51:35.833Z,988.7
2022-11-27T16:53:36.936Z,988.6
2022-11-27T16:55:38.678Z,988.5
2022-11-27T16:57:39.669Z,988.5
2022-11-27T16:58:23.562Z,988.4
2022-11-27T17:00:24.963Z,988.4
2022-11-27T17:02:26.934Z,988.3
2022-11-27T17:06:30.246Z,988.4
2022-11-27T17:08:32.154Z,988.4
2022-11-27T17:10:33.675Z,988.3
2022-11-27T17:12:34.859Z,988.4
2022-11-27T17:16:37.795Z,988.3
2022-11-27T17:18:38.931Z,988.3
2022-11-27T17:22:41.119Z,988.2
2022-11-27T17:24:42.950Z,988.2
2022-11-27T17:26:44.837Z,988.2
2022-11-27T17:28:46.785Z,988.1
2022-11-27T17:30:47.863Z,988.1
2022-11-27T17:32:48.935Z,988.1
2022-11-27T17:34:50.085Z,988.1
2022-11-27T17:36:51.549Z,988.1
2022-11-27T17:38:53.540Z,988
2022-11-27T17:40:54.665Z,988
2022-11-27T17:42:56.265Z,988
2022-11-27T17:44:57.715Z,988
2022-11-27T17:46:59.394Z,987.9
2022-11-27T17:49:01.368Z,987.9
2022-11-27T17:51:03.086Z,987.9
2022-11-27T17:53:04.887Z,987.9
2022-11-27T17:55:06.015Z,987.8
2022-11-27T17:57:07.059Z,987.8
2022-11-27T17:59:08.252Z,987.7
2022-11-27T18:01:09.848Z,987.7
2022-11-27T18:05:12.678Z,987.7
2022-11-27T18:07:14.607Z,987.7
2022-11-27T18:09:16.430Z,987.8
2022-11-27T18:11:18.189Z,987.8
2022-11-27T18:13:19.754Z,987.7
2022-11-27T18:15:21.464Z,987.6
2022-11-27T18:17:22.432Z,987.6
2022-11-27T18:19:23.883Z,987.6
2022-11-27T18:21:25.625Z,987.6
2022-11-27T18:23:27.065Z,987.6
2022-11-27T18:25:28.258Z,987.5
2022-11-27T18:27:29.369Z,987.6
2022-11-27T18:29:30.727Z,987.7
2022-11-27T18:31:32.478Z,987.7
2022-11-27T18:33:34.235Z,987.6
2022-11-27T18:35:35.471Z,987.5
2022-11-27T18:37:37.232Z,987.4
2022-11-27T18:39:39.380Z,987.3
2022-11-27T18:41:40.361Z,987.3
2022-11-27T18:43:41.699Z,987.3
2022-11-27T18:45:42.797Z,987.2
2022-11-27T18:47:44.761Z,987.3
2022-11-27T18:49:46.677Z,987.3
2022-11-27T18:51:47.994Z,987.2
2022-11-27T18:53:49.953Z,987.1
2022-11-27T18:55:52.820Z,987.1
2022-11-27T18:57:53.227Z,987
2022-11-27T18:59:54.647Z,987.2
2022-11-27T19:03:57.035Z,986.9
2022-11-27T19:05:58.526Z,986.9
2022-11-27T19:08:00.355Z,986.9
2022-11-27T19:10:01.967Z,987
2022-11-27T19:12:03.871Z,987
2022-11-27T19:14:04.991Z,987
2022-11-27T19:16:06.644Z,987
2022-11-27T19:18:08.265Z,987
2022-11-27T19:20:09.598Z,987
2022-11-27T19:22:10.523Z,986.8
2022-11-27T19:24:11.809Z,987
2022-11-27T19:26:12.915Z,986.9
2022-11-27T19:28:14.606Z,986.9
2022-11-27T19:30:16.153Z,986.8
2022-11-27T19:32:18.069Z,986.8
2022-11-27T19:34:19.216Z,986.8
2022-11-27T19:36:20.791Z,986.8
2022-11-27T19:38:22.375Z,986.7
2022-11-27T19:40:23.846Z,986.6
2022-11-27T19:42:25.060Z,986.6
2022-11-27T19:46:28.089Z,986.6
2022-11-27T19:48:29.121Z,986.5
2022-11-27T19:50:30.135Z,986.5
2022-11-27T19:52:31.255Z,986.5
2022-11-27T19:54:33.264Z,986.6
2022-11-27T19:56:34.929Z,986.6
2022-11-27T19:58:36.285Z,986.5
2022-11-27T20:00:38.090Z,986.6
2022-11-27T20:02:39.579Z,986.4
2022-11-27T20:04:40.769Z,986.4
2022-11-27T20:06:41.993Z,986.3
2022-11-27T20:08:43.289Z,986.3
2022-11-27T20:12:45.755Z,986.3
2022-11-27T20:14:47.663Z,986.3
2022-11-27T20:16:49.132Z,986.3
2022-11-27T20:18:51.034Z,986.2
2022-11-27T20:20:52.930Z,986.3
2022-11-27T20:22:54.474Z,986.3
2022-11-27T20:25:17.560Z,986.3
2022-11-27T20:26:57.588Z,986.3
2022-11-27T20:28:59.526Z,986.4
2022-11-27T20:31:01.266Z,986.4
2022-11-27T20:33:07.277Z,986.4
2022-11-27T20:35:04.734Z,986.5
2022-11-27T20:37:05.827Z,986.5
2022-11-27T20:39:07.180Z,986.4
2022-11-27T20:41:08.224Z,986.5
2022-11-27T20:43:09.798Z,986.4
2022-11-27T20:45:13.185Z,986.4
2022-11-27T20:47:13.087Z,986.4
2022-11-27T20:49:14.770Z,986.4
2022-11-27T20:51:16.198Z,986.3
2022-11-27T20:55:19.184Z,986.2
2022-11-27T20:57:20.574Z,986.1
2022-11-27T20:59:22.026Z,986.1
2022-11-27T21:01:23.905Z,986.1
2022-11-27T21:03:25.536Z,986.1
2022-11-27T21:05:27.019Z,986.2
2022-11-27T21:07:28.975Z,986.1
2022-11-27T21:09:30.218Z,985.8
2022-11-27T21:11:31.561Z,986
2022-11-27T21:13:33.221Z,985.9
2022-11-27T21:15:34.634Z,986
2022-11-27T21:17:36.623Z,986
2022-11-27T21:19:37.790Z,986
2022-11-27T21:21:39.073Z,986
2022-11-27T21:23:40.264Z,986
2022-11-27T21:25:41.833Z,985.9
2022-11-27T21:27:43.779Z,986
2022-11-27T21:29:44.880Z,986
2022-11-27T21:31:47.329Z,986
2022-11-27T21:33:47.750Z,986
2022-11-27T21:37:50.340Z,986
2022-11-27T21:39:52.057Z,985.9
2022-11-27T21:41:53.796Z,986
2022-11-27T21:43:55.668Z,986
2022-11-27T21:47:58.559Z,985.9
2022-11-27T21:49:59.638Z,986
2022-11-27T21:52:01.594Z,985.9
2022-11-27T21:54:02.987Z,986
2022-11-27T21:56:04.938Z,985.9
2022-11-27T21:58:06.702Z,985.9
2022-11-27T22:00:08.688Z,985.8
2022-11-27T22:02:10.240Z,985.8
2022-11-27T22:04:12.099Z,985.7
2022-11-27T22:06:13.436Z,985.7
2022-11-27T22:08:14.477Z,985.7
2022-11-27T22:10:15.673Z,985.7
2022-11-27T22:12:16.815Z,985.7
2022-11-27T22:14:18.230Z,985.7
2022-11-27T22:16:20.136Z,985.7
2022-11-27T22:20:22.850Z,985.7
2022-11-27T22:22:24.188Z,985.7
2022-11-27T22:24:26.083Z,985.7
2022-11-27T22:26:27.541Z,985.7
2022-11-27T22:30:30.881Z,985.7
2022-11-27T22:32:32.155Z,985.8
2022-11-27T22:34:33.835Z,985.8
2022-11-27T22:36:35.507Z,985.5
2022-11-27T22:38:37.349Z,985.6
2022-11-27T22:40:39.277Z,985.6
2022-11-27T22:42:41.139Z,985.7
2022-11-27T22:44:42.959Z,985.6
2022-11-27T22:46:44.909Z,985.7
2022-11-27T22:48:45.996Z,985.6
2022-11-27T22:50:47.142Z,985.7
2022-11-27T22:52:48.667Z,985.6
2022-11-27T22:54:50.522Z,985.6
2022-11-27T22:56:52.502Z,985.6
2022-11-27T22:59:06.237Z,985.6
2022-11-27T23:02:57.423Z,985.4
2022-11-27T23:04:59.287Z,985.3
2022-11-27T23:07:01.055Z,985.3
2022-11-27T23:09:02.148Z,985.2
2022-11-27T23:13:04.341Z,985.1
2022-11-27T23:15:05.791Z,985.1
2022-11-27T23:19:09.206Z,984.8
2022-11-27T23:21:10.675Z,984.6
2022-11-27T23:23:11.691Z,984.5
2022-11-27T23:25:12.864Z,984.3
2022-11-27T23:27:13.975Z,984.1
2022-11-27T23:29:15.571Z,984
2022-11-27T23:31:29.251Z,983.7
2022-11-27T23:33:18.900Z,983.2
2022-11-27T23:35:20.591Z,983.3
2022-11-27T23:37:21.583Z,983.5
2022-11-27T23:39:22.605Z,983.8
2022-11-27T23:41:24.104Z,983.8
2022-11-27T23:43:25.767Z,983.9
2022-11-27T23:46:10.829Z,984
2022-11-27T23:48:11.943Z,984.1
2022-11-27T23:50:13.526Z,984.2
2022-11-27T23:52:17.069Z,984.2
2022-11-27T23:54:17.064Z,984
2022-11-27T23:56:18.273Z,984.1
2022-11-27T23:58:19.863Z,984.2
